Airfield :
LOGIN :

Register | Disclaimer

   EN    FR    IT 

 










Legend :    VFR   Marginal VFR   IFR   Intensive IFR   Very Intensive IFR
Visi :
Ceiling :
>= 8 km
>= 3000ft
5 to 8 km
1000 to 3000 ft
1500m to 5 km
500 to 1000 ft
800 to 1500m
200 to 500 ft
< 800m
< 200 ft
Symbols :   Thunderstorms  Fog  Heavy snow  Heavy precipitations  Wind > 20 kt
SIGMETs :     Misc.  Thunderstorms  Icing  Turbulence  Mountain Waves  Volcanic Ashes






- Airport Elevation : 135 ft
- IATA code : EDI


EGPH - Edinburgh

CURRENT METAR :
  • 062220Z 22006KT CAVOK 03/02 Q1022

EXPIRED METARs :
  • 062150Z 25007KT 9999 SCT047 05/02 Q1022
  • 062120Z 23006KT 9999 FEW049 05/02 Q1021
  • 062050Z 23006KT CAVOK 07/03 Q1021
  • 062020Z 25006KT CAVOK 06/02 Q1020
  • 061950Z 24007KT CAVOK 06/02 Q1020
  • 061920Z 25006KT CAVOK 07/01 Q1019

TAF TAF EGPH
Valid from the 06 at 18:00 until the 07 at 18:00 UTC


061658Z 0618/0718 26014KT 9999 FEW030
BECMG 0618/0621 20009KT
PROB30
TEMPO 0711/0718 21015G25KT
ATIS : +44 131 339 2823



MET'MAP, your aeronautical weather chart ! - Copyright ORBIFLY December 2007 - Disclaimer

ORBIFLY MET'MAP TEAM :

Programming & Development : Alexandra Zaïnal
Concept & original design : Baudouin d'Aumeries
Assistance for programming : Marc-Olivier Méhu
Technical & hardware support : Manuel Goepfert

Contact : metmap@orbifly.com




SOURCES & CREDITS :

   NOAA